CDT,Max TemperatureF,Mean TemperatureF,Min TemperatureF,Max Dew PointF,MeanDew PointF,Min DewpointF,Max Humidity, Mean Humidity, Min Humidity, Max Sea Level PressureIn, Mean Sea Level PressureIn, Min Sea Level PressureIn, Max VisibilityMiles, Mean VisibilityMiles, Min VisibilityMiles, Max Wind SpeedMPH, Mean Wind SpeedMPH, Max Gust SpeedMPH,PrecipitationIn, CloudCover, Events, WindDirDegrees
2012-10-1,68,56,44,48,43,39,86,63,39,29.94,29.90,29.85,10,10,9,9,2,,0.00,0,,143
2012-10-2,73,59,45,48,45,42,93,66,38,29.94,29.90,29.86,10,10,7,13,5,23,0.00,0,,31
2012-10-3,75,58,41,50,45,39,96,66,35,30.00,29.96,29.92,10,10,6,13,4,18,0.00,0,,131
2012-10-4,59,51,42,51,41,30,96,70,43,30.19,30.06,29.97,10,9,7,22,12,28,T,3,Rain,258
2012-10-5,46,38,30,30,24,17,85,62,38,30.23,30.18,30.14,10,10,10,23,11,26,0.00,0,,283
2012-10-6,42,36,30,27,25,23,72,62,51,30.25,30.20,30.15,10,10,10,20,10,24,0.00,6,,312
2012-10-7,50,41,31,26,20,15,70,47,24,30.25,30.18,30.12,10,10,10,18,6,25,0.00,4,,258
2012-10-8,62,46,30,33,28,19,78,57,35,30.10,29.99,29.88,10,10,10,31,18,37,0.00,0,,197
2012-10-9,60,48,36,42,37,31,93,70,46,29.98,29.88,29.81,10,9,4,24,14,30,0.09,5,Rain,258
2012-10-10,50,39,27,30,27,25,85,62,39,30.17,30.12,29.99,10,10,10,22,10,25,0.00,1,,269
2012-10-11,64,50,36,36,31,25,70,52,34,30.31,30.12,30.05,10,10,10,25,15,32,0.00,3,,279
2012-10-12,52,41,29,35,22,16,69,47,24,30.48,30.36,30.21,10,10,7,20,9,24,0.09,2,Rain,99
2012-10-13,65,54,42,63,54,36,100,85,70,30.15,29.87,29.71,10,4,1,22,13,28,0.52,8,Rain,190
2012-10-14,63,52,41,62,54,39,100,91,82,29.87,29.61,29.47,10,6,1,26,11,33,0.67,7,Rain,243
2012-10-15,60,49,37,44,39,35,92,70,47,29.99,29.94,29.88,10,10,7,13,5,16,0.00,0,,284
2012-10-16,69,57,44,53,47,39,86,70,53,29.90,29.64,29.46,10,10,9,26,13,32,0.00,0,,176
2012-10-17,64,55,46,56,51,41,96,81,65,29.47,29.38,29.34,10,8,2,22,12,28,0.46,5,Rain,217
2012-10-18,46,44,42,43,41,38,100,91,82,29.39,29.34,29.31,10,9,2,25,12,30,0.04,8,Rain,231
2012-10-19,52,45,38,43,41,37,100,80,59,29.72,29.52,29.37,10,9,2,16,7,31,0.05,7,Rain,334
2012-10-20,53,42,30,42,37,30,100,82,63,29.94,29.84,29.73,10,8,0,16,5,30,0.00,1,Fog,234
2012-10-21,67,54,40,51,45,37,93,73,52,29.97,29.93,29.89,10,9,6,18,10,24,0.00,0,,155
2012-10-22,63,59,55,61,59,51,100,90,80,29.94,29.89,29.86,10,4,0,18,7,21,0.64,7,Fog-Rain-Thunderstorm,122
2012-10-23,72,66,59,64,61,59,100,87,73,29.88,29.85,29.79,10,5,0,20,11,23,T,7,Fog,143
2012-10-24,78,69,60,66,63,60,100,81,62,29.88,29.81,29.70,10,8,2,26,13,33,0.00,5,,177
2012-10-25,68,53,37,63,48,28,96,83,70,30.16,29.77,29.58,10,9,2,30,20,37,0.06,7,Rain-Snow-Thunderstorm,269
2012-10-26,45,36,27,28,26,24,92,71,49,30.40,30.33,30.19,10,10,9,25,10,31,0.00,1,Snow,320
2012-10-27,43,34,24,28,23,20,88,66,43,30.41,30.36,30.32,10,10,10,15,4,25,0.00,0,,357
2012-10-28,48,37,25,26,23,19,75,59,42,30.39,30.35,30.32,10,10,10,12,5,,0.00,0,,25
2012-10-29,50,38,25,29,24,21,92,64,36,30.39,30.32,30.20,10,10,8,10,4,14,0.00,0,,29
2012-10-30,51,42,32,26,23,21,69,51,32,30.19,30.04,29.94,10,10,10,23,14,31,0.00,0,,357
2012-10-31,50,38,26,24,19,15,81,54,26,29.96,29.95,29.92,10,10,10,21,12,24,0.00,0,,342